sensor_id;sensor_type;location;lat;lon;timestamp;P1;durP1;ratioP1;P2;durP2;ratioP2
12359;SDS011;6244;51.460;7.090;2023-04-08T00:04:09;22.58;;;16.02;;
12359;SDS011;6244;51.460;7.090;2023-04-08T00:09:09;20.45;;;14.57;;
12359;SDS011;6244;51.460;7.090;2023-04-08T00:14:06;20.85;;;14.63;;
12359;SDS011;6244;51.460;7.090;2023-04-08T00:19:02;20.27;;;15.30;;
12359;SDS011;6244;51.460;7.090;2023-04-08T00:24:00;21.27;;;14.40;;
12359;SDS011;6244;51.460;7.090;2023-04-08T00:28:58;20.45;;;15.23;;
12359;SDS011;6244;51.460;7.090;2023-04-08T00:33:54;23.05;;;13.95;;
12359;SDS011;6244;51.460;7.090;2023-04-08T00:38:51;22.85;;;14.93;;
12359;SDS011;6244;51.460;7.090;2023-04-08T00:43:47;20.35;;;13.43;;
12359;SDS011;6244;51.460;7.090;2023-04-08T00:48:46;20.35;;;14.38;;
12359;SDS011;6244;51.460;7.090;2023-04-08T00:53:42;19.17;;;14.07;;
12359;SDS011;6244;51.460;7.090;2023-04-08T00:58:39;17.02;;;12.60;;
12359;SDS011;6244;51.460;7.090;2023-04-08T01:03:38;19.65;;;13.07;;
12359;SDS011;6244;51.460;7.090;2023-04-08T01:08:42;19.13;;;13.93;;
12359;SDS011;6244;51.460;7.090;2023-04-08T01:13:41;21.38;;;14.65;;
12359;SDS011;6244;51.460;7.090;2023-04-08T01:18:40;21.58;;;13.57;;
12359;SDS011;6244;51.460;7.090;2023-04-08T01:23:40;23.17;;;15.10;;
12359;SDS011;6244;51.460;7.090;2023-04-08T01:28:49;21.35;;;14.40;;
12359;SDS011;6244;51.460;7.090;2023-04-08T01:33:48;21.55;;;14.43;;
12359;SDS011;6244;51.460;7.090;2023-04-08T01:38:46;53.35;;;15.77;;
12359;SDS011;6244;51.460;7.090;2023-04-08T01:43:43;27.00;;;15.15;;
12359;SDS011;6244;51.460;7.090;2023-04-08T01:48:42;73.78;;;17.52;;
12359;SDS011;6244;51.460;7.090;2023-04-08T01:53:40;71.28;;;16.80;;
12359;SDS011;6244;51.460;7.090;2023-04-08T01:58:38;91.72;;;18.48;;
12359;SDS011;6244;51.460;7.090;2023-04-08T02:03:37;227.15;;;26.10;;
12359;SDS011;6244;51.460;7.090;2023-04-08T02:08:37;278.17;;;27.45;;
12359;SDS011;6244;51.460;7.090;2023-04-08T02:13:34;292.92;;;27.15;;
12359;SDS011;6244;51.460;7.090;2023-04-08T02:18:31;249.50;;;24.35;;
12359;SDS011;6244;51.460;7.090;2023-04-08T02:23:30;67.97;;;17.27;;
12359;SDS011;6244;51.460;7.090;2023-04-08T02:28:31;151.73;;;20.55;;
12359;SDS011;6244;51.460;7.090;2023-04-08T02:33:30;353.70;;;30.23;;
12359;SDS011;6244;51.460;7.090;2023-04-08T02:38:30;327.63;;;30.35;;
12359;SDS011;6244;51.460;7.090;2023-04-08T02:43:27;111.43;;;19.00;;
12359;SDS011;6244;51.460;7.090;2023-04-08T02:48:27;440.35;;;36.97;;
12359;SDS011;6244;51.460;7.090;2023-04-08T02:53:24;327.13;;;26.63;;
12359;SDS011;6244;51.460;7.090;2023-04-08T02:58:21;88.20;;;16.90;;
12359;SDS011;6244;51.460;7.090;2023-04-08T03:03:17;308.90;;;27.00;;
12359;SDS011;6244;51.460;7.090;2023-04-08T03:08:15;290.85;;;26.73;;
12359;SDS011;6244;51.460;7.090;2023-04-08T03:13:11;301.00;;;27.02;;
12359;SDS011;6244;51.460;7.090;2023-04-08T03:18:08;305.60;;;27.60;;
12359;SDS011;6244;51.460;7.090;2023-04-08T03:23:04;92.35;;;16.45;;
12359;SDS011;6244;51.460;7.090;2023-04-08T03:28:02;200.43;;;22.27;;
12359;SDS011;6244;51.460;7.090;2023-04-08T03:32:59;165.70;;;20.67;;
12359;SDS011;6244;51.460;7.090;2023-04-08T03:37:57;161.30;;;20.13;;
12359;SDS011;6244;51.460;7.090;2023-04-08T03:42:54;101.72;;;15.70;;
12359;SDS011;6244;51.460;7.090;2023-04-08T03:47:51;122.65;;;18.40;;
12359;SDS011;6244;51.460;7.090;2023-04-08T03:52:48;121.35;;;16.25;;
12359;SDS011;6244;51.460;7.090;2023-04-08T03:57:44;73.07;;;13.02;;
12359;SDS011;6244;51.460;7.090;2023-04-08T04:02:41;90.18;;;14.45;;
12359;SDS011;6244;51.460;7.090;2023-04-08T04:07:39;39.92;;;12.40;;
12359;SDS011;6244;51.460;7.090;2023-04-08T04:12:35;26.35;;;11.40;;
12359;SDS011;6244;51.460;7.090;2023-04-08T04:17:32;53.38;;;12.88;;
12359;SDS011;6244;51.460;7.090;2023-04-08T04:22:28;53.22;;;15.40;;
12359;SDS011;6244;51.460;7.090;2023-04-08T04:27:26;62.10;;;14.57;;
12359;SDS011;6244;51.460;7.090;2023-04-08T04:32:23;111.22;;;16.58;;
12359;SDS011;6244;51.460;7.090;2023-04-08T04:37:19;78.25;;;15.95;;
12359;SDS011;6244;51.460;7.090;2023-04-08T04:42:16;139.50;;;17.73;;
12359;SDS011;6244;51.460;7.090;2023-04-08T04:47:14;154.43;;;18.92;;
12359;SDS011;6244;51.460;7.090;2023-04-08T04:52:10;199.57;;;27.70;;
12359;SDS011;6244;51.460;7.090;2023-04-08T04:57:07;137.15;;;22.90;;
12359;SDS011;6244;51.460;7.090;2023-04-08T05:02:05;181.65;;;25.55;;
12359;SDS011;6244;51.460;7.090;2023-04-08T05:07:02;106.15;;;21.75;;
12359;SDS011;6244;51.460;7.090;2023-04-08T05:11:59;139.48;;;24.23;;
12359;SDS011;6244;51.460;7.090;2023-04-08T05:16:55;267.23;;;31.40;;
12359;SDS011;6244;51.460;7.090;2023-04-08T05:21:52;226.75;;;30.98;;
12359;SDS011;6244;51.460;7.090;2023-04-08T05:26:50;157.65;;;26.70;;
12359;SDS011;6244;51.460;7.090;2023-04-08T05:31:47;154.95;;;25.63;;
12359;SDS011;6244;51.460;7.090;2023-04-08T05:36:43;172.32;;;25.05;;
12359;SDS011;6244;51.460;7.090;2023-04-08T05:41:40;132.27;;;23.42;;
12359;SDS011;6244;51.460;7.090;2023-04-08T05:46:38;182.27;;;25.58;;
12359;SDS011;6244;51.460;7.090;2023-04-08T05:51:34;187.77;;;26.77;;
12359;SDS011;6244;51.460;7.090;2023-04-08T05:56:31;207.95;;;25.85;;
12359;SDS011;6244;51.460;7.090;2023-04-08T06:01:27;138.90;;;22.38;;
12359;SDS011;6244;51.460;7.090;2023-04-08T06:06:26;156.70;;;24.48;;
12359;SDS011;6244;51.460;7.090;2023-04-08T06:11:22;131.15;;;22.85;;
12359;SDS011;6244;51.460;7.090;2023-04-08T06:16:19;127.35;;;21.63;;
12359;SDS011;6244;51.460;7.090;2023-04-08T06:21:15;91.90;;;21.45;;
12359;SDS011;6244;51.460;7.090;2023-04-08T06:26:14;84.18;;;19.38;;
12359;SDS011;6244;51.460;7.090;2023-04-08T06:31:10;174.32;;;23.92;;
12359;SDS011;6244;51.460;7.090;2023-04-08T06:36:07;138.45;;;23.80;;
12359;SDS011;6244;51.460;7.090;2023-04-08T06:41:04;135.23;;;24.98;;
12359;SDS011;6244;51.460;7.090;2023-04-08T06:46:01;111.63;;;22.60;;
12359;SDS011;6244;51.460;7.090;2023-04-08T06:50:59;71.75;;;22.60;;
12359;SDS011;6244;51.460;7.090;2023-04-08T06:55:56;57.17;;;20.25;;
12359;SDS011;6244;51.460;7.090;2023-04-08T07:00:52;82.72;;;21.95;;
12359;SDS011;6244;51.460;7.090;2023-04-08T07:05:51;63.78;;;21.10;;
12359;SDS011;6244;51.460;7.090;2023-04-08T07:10:48;71.03;;;19.08;;
12359;SDS011;6244;51.460;7.090;2023-04-08T07:15:44;89.88;;;21.10;;
12359;SDS011;6244;51.460;7.090;2023-04-08T07:20:41;68.85;;;18.30;;
12359;SDS011;6244;51.460;7.090;2023-04-08T07:25:39;66.95;;;18.77;;
12359;SDS011;6244;51.460;7.090;2023-04-08T07:30:35;58.90;;;18.60;;
12359;SDS011;6244;51.460;7.090;2023-04-08T07:35:32;49.35;;;18.80;;
12359;SDS011;6244;51.460;7.090;2023-04-08T07:40:29;37.58;;;19.48;;
12359;SDS011;6244;51.460;7.090;2023-04-08T07:45:26;32.83;;;20.48;;
12359;SDS011;6244;51.460;7.090;2023-04-08T07:50:23;48.08;;;19.40;;
12359;SDS011;6244;51.460;7.090;2023-04-08T07:55:19;35.85;;;20.88;;
12359;SDS011;6244;51.460;7.090;2023-04-08T08:00:16;39.85;;;24.55;;
12359;SDS011;6244;51.460;7.090;2023-04-08T08:05:17;42.28;;;25.40;;
12359;SDS011;6244;51.460;7.090;2023-04-08T08:10:13;42.53;;;24.55;;
12359;SDS011;6244;51.460;7.090;2023-04-08T08:15:10;44.22;;;26.13;;
12359;SDS011;6244;51.460;7.090;2023-04-08T08:20:07;41.30;;;25.58;;
12359;SDS011;6244;51.460;7.090;2023-04-08T08:25:06;37.28;;;25.00;;
12359;SDS011;6244;51.460;7.090;2023-04-08T08:30:04;35.97;;;22.63;;
12359;SDS011;6244;51.460;7.090;2023-04-08T08:35:01;31.60;;;21.23;;
12359;SDS011;6244;51.460;7.090;2023-04-08T08:39:58;31.90;;;20.65;;
12359;SDS011;6244;51.460;7.090;2023-04-08T08:44:56;25.77;;;18.38;;
12359;SDS011;6244;51.460;7.090;2023-04-08T08:49:53;28.05;;;18.65;;
12359;SDS011;6244;51.460;7.090;2023-04-08T08:54:55;26.27;;;18.27;;
12359;SDS011;6244;51.460;7.090;2023-04-08T08:59:53;30.20;;;19.73;;
12359;SDS011;6244;51.460;7.090;2023-04-08T09:04:56;28.67;;;19.55;;
12359;SDS011;6244;51.460;7.090;2023-04-08T09:09:54;29.65;;;18.13;;
12359;SDS011;6244;51.460;7.090;2023-04-08T09:15:01;28.02;;;19.17;;
12359;SDS011;6244;51.460;7.090;2023-04-08T09:20:07;25.65;;;17.92;;
12359;SDS011;6244;51.460;7.090;2023-04-08T09:25:19;26.30;;;17.25;;
12359;SDS011;6244;51.460;7.090;2023-04-08T09:30:18;17.98;;;13.13;;
12359;SDS011;6244;51.460;7.090;2023-04-08T09:35:18;16.65;;;12.93;;
12359;SDS011;6244;51.460;7.090;2023-04-08T09:40:16;15.63;;;12.00;;
12359;SDS011;6244;51.460;7.090;2023-04-08T09:45:14;18.70;;;12.75;;
12359;SDS011;6244;51.460;7.090;2023-04-08T09:50:10;16.00;;;12.20;;
12359;SDS011;6244;51.460;7.090;2023-04-08T09:55:08;17.58;;;12.18;;
12359;SDS011;6244;51.460;7.090;2023-04-08T10:00:08;15.35;;;12.07;;
12359;SDS011;6244;51.460;7.090;2023-04-08T10:05:09;15.52;;;11.57;;
12359;SDS011;6244;51.460;7.090;2023-04-08T10:10:10;13.98;;;9.85;;
12359;SDS011;6244;51.460;7.090;2023-04-08T10:15:22;15.23;;;10.25;;
12359;SDS011;6244;51.460;7.090;2023-04-08T10:25:40;13.23;;;9.68;;
12359;SDS011;6244;51.460;7.090;2023-04-08T10:30:37;14.10;;;10.15;;
12359;SDS011;6244;51.460;7.090;2023-04-08T10:35:35;14.23;;;9.18;;
12359;SDS011;6244;51.460;7.090;2023-04-08T10:40:36;14.10;;;10.10;;
12359;SDS011;6244;51.460;7.090;2023-04-08T10:45:36;13.02;;;9.95;;
12359;SDS011;6244;51.460;7.090;2023-04-08T10:50:33;14.35;;;9.65;;
12359;SDS011;6244;51.460;7.090;2023-04-08T10:55:30;17.00;;;10.40;;
12359;SDS011;6244;51.460;7.090;2023-04-08T11:00:31;16.30;;;10.27;;
12359;SDS011;6244;51.460;7.090;2023-04-08T11:05:30;13.60;;;9.63;;
12359;SDS011;6244;51.460;7.090;2023-04-08T11:10:27;13.50;;;9.90;;
12359;SDS011;6244;51.460;7.090;2023-04-08T11:15:23;13.63;;;9.57;;
12359;SDS011;6244;51.460;7.090;2023-04-08T11:20:20;17.23;;;11.55;;
12359;SDS011;6244;51.460;7.090;2023-04-08T11:25:18;13.88;;;10.50;;
12359;SDS011;6244;51.460;7.090;2023-04-08T11:30:15;17.98;;;11.02;;
12359;SDS011;6244;51.460;7.090;2023-04-08T11:35:11;16.25;;;11.60;;
12359;SDS011;6244;51.460;7.090;2023-04-08T11:40:11;13.80;;;11.30;;
12359;SDS011;6244;51.460;7.090;2023-04-08T11:45:10;15.48;;;10.93;;
12359;SDS011;6244;51.460;7.090;2023-04-08T11:50:07;15.80;;;10.95;;
12359;SDS011;6244;51.460;7.090;2023-04-08T11:55:05;14.38;;;9.75;;
12359;SDS011;6244;51.460;7.090;2023-04-08T12:00:02;14.65;;;10.52;;
12359;SDS011;6244;51.460;7.090;2023-04-08T12:05:02;15.82;;;11.93;;
12359;SDS011;6244;51.460;7.090;2023-04-08T12:09:58;13.15;;;9.30;;
12359;SDS011;6244;51.460;7.090;2023-04-08T12:14:55;15.23;;;11.38;;
12359;SDS011;6244;51.460;7.090;2023-04-08T12:19:52;15.52;;;11.18;;
12359;SDS011;6244;51.460;7.090;2023-04-08T12:24:50;13.52;;;10.65;;
12359;SDS011;6244;51.460;7.090;2023-04-08T12:29:46;16.23;;;11.77;;
12359;SDS011;6244;51.460;7.090;2023-04-08T12:34:43;17.15;;;12.20;;
12359;SDS011;6244;51.460;7.090;2023-04-08T12:39:40;16.45;;;11.48;;
12359;SDS011;6244;51.460;7.090;2023-04-08T12:44:38;15.27;;;11.48;;
12359;SDS011;6244;51.460;7.090;2023-04-08T12:49:34;16.17;;;10.88;;
12359;SDS011;6244;51.460;7.090;2023-04-08T12:54:31;13.85;;;10.13;;
12359;SDS011;6244;51.460;7.090;2023-04-08T12:59:27;14.07;;;9.02;;
12359;SDS011;6244;51.460;7.090;2023-04-08T13:04:27;13.13;;;9.55;;
12359;SDS011;6244;51.460;7.090;2023-04-08T13:09:23;11.85;;;8.70;;
12359;SDS011;6244;51.460;7.090;2023-04-08T13:14:20;9.95;;;8.00;;
12359;SDS011;6244;51.460;7.090;2023-04-08T13:19:17;11.27;;;8.80;;
12359;SDS011;6244;51.460;7.090;2023-04-08T13:24:14;12.00;;;9.00;;
12359;SDS011;6244;51.460;7.090;2023-04-08T13:29:12;13.77;;;10.40;;
12359;SDS011;6244;51.460;7.090;2023-04-08T13:34:08;16.35;;;11.77;;
12359;SDS011;6244;51.460;7.090;2023-04-08T13:39:05;16.65;;;11.18;;
12359;SDS011;6244;51.460;7.090;2023-04-08T13:44:03;17.40;;;11.85;;
12359;SDS011;6244;51.460;7.090;2023-04-08T13:49:00;15.32;;;11.40;;
12359;SDS011;6244;51.460;7.090;2023-04-08T13:53:57;15.90;;;12.07;;
12359;SDS011;6244;51.460;7.090;2023-04-08T13:58:53;14.90;;;11.60;;
12359;SDS011;6244;51.460;7.090;2023-04-08T14:03:51;14.88;;;10.60;;
12359;SDS011;6244;51.460;7.090;2023-04-08T14:08:48;14.65;;;10.65;;
12359;SDS011;6244;51.460;7.090;2023-04-08T14:13:44;14.95;;;10.57;;
12359;SDS011;6244;51.460;7.090;2023-04-08T14:18:41;15.88;;;10.82;;
12359;SDS011;6244;51.460;7.090;2023-04-08T14:23:39;15.20;;;10.73;;
12359;SDS011;6244;51.460;7.090;2023-04-08T14:28:35;14.13;;;11.07;;
12359;SDS011;6244;51.460;7.090;2023-04-08T14:33:32;14.63;;;10.48;;
12359;SDS011;6244;51.460;7.090;2023-04-08T14:38:28;14.80;;;10.70;;
12359;SDS011;6244;51.460;7.090;2023-04-08T14:43:26;13.45;;;10.02;;
12359;SDS011;6244;51.460;7.090;2023-04-08T14:48:23;12.57;;;9.52;;
12359;SDS011;6244;51.460;7.090;2023-04-08T14:53:20;12.45;;;9.60;;
12359;SDS011;6244;51.460;7.090;2023-04-08T14:58:17;14.90;;;10.82;;
12359;SDS011;6244;51.460;7.090;2023-04-08T15:03:15;16.63;;;11.02;;
12359;SDS011;6244;51.460;7.090;2023-04-08T15:08:12;18.50;;;11.73;;
12359;SDS011;6244;51.460;7.090;2023-04-08T15:13:09;20.00;;;13.65;;
12359;SDS011;6244;51.460;7.090;2023-04-08T15:18:06;22.00;;;15.23;;
12359;SDS011;6244;51.460;7.090;2023-04-08T15:23:04;25.02;;;16.15;;
12359;SDS011;6244;51.460;7.090;2023-04-08T15:28:00;23.83;;;15.70;;
12359;SDS011;6244;51.460;7.090;2023-04-08T15:32:57;24.15;;;16.23;;
12359;SDS011;6244;51.460;7.090;2023-04-08T15:37:54;28.45;;;18.40;;
12359;SDS011;6244;51.460;7.090;2023-04-08T15:42:52;24.70;;;15.90;;
12359;SDS011;6244;51.460;7.090;2023-04-08T15:47:48;18.25;;;12.82;;
12359;SDS011;6244;51.460;7.090;2023-04-08T15:52:46;22.52;;;14.32;;
12359;SDS011;6244;51.460;7.090;2023-04-08T15:57:42;21.80;;;15.25;;
12359;SDS011;6244;51.460;7.090;2023-04-08T16:02:40;19.60;;;12.98;;
12359;SDS011;6244;51.460;7.090;2023-04-08T16:07:37;19.42;;;14.13;;
12359;SDS011;6244;51.460;7.090;2023-04-08T16:12:33;21.27;;;13.60;;
12359;SDS011;6244;51.460;7.090;2023-04-08T16:17:30;19.75;;;13.25;;
12359;SDS011;6244;51.460;7.090;2023-04-08T16:22:28;21.00;;;14.18;;
12359;SDS011;6244;51.460;7.090;2023-04-08T16:27:24;20.50;;;14.40;;
12359;SDS011;6244;51.460;7.090;2023-04-08T16:32:21;17.70;;;14.00;;
12359;SDS011;6244;51.460;7.090;2023-04-08T16:37:17;21.52;;;13.80;;
12359;SDS011;6244;51.460;7.090;2023-04-08T16:42:15;19.20;;;13.55;;
12359;SDS011;6244;51.460;7.090;2023-04-08T16:47:12;19.75;;;13.48;;
12359;SDS011;6244;51.460;7.090;2023-04-08T16:52:08;18.02;;;12.55;;
12359;SDS011;6244;51.460;7.090;2023-04-08T16:57:05;19.38;;;13.35;;
12359;SDS011;6244;51.460;7.090;2023-04-08T17:02:03;19.63;;;14.00;;
12359;SDS011;6244;51.460;7.090;2023-04-08T17:07:00;20.05;;;14.63;;
12359;SDS011;6244;51.460;7.090;2023-04-08T17:11:57;21.35;;;15.38;;
12359;SDS011;6244;51.460;7.090;2023-04-08T17:16:53;23.20;;;14.90;;
12359;SDS011;6244;51.460;7.090;2023-04-08T17:21:52;22.92;;;15.82;;
12359;SDS011;6244;51.460;7.090;2023-04-08T17:26:48;23.42;;;15.98;;
12359;SDS011;6244;51.460;7.090;2023-04-08T17:31:45;29.98;;;18.35;;
12359;SDS011;6244;51.460;7.090;2023-04-08T17:36:42;43.63;;;25.95;;
12359;SDS011;6244;51.460;7.090;2023-04-08T17:41:40;35.55;;;22.98;;
12359;SDS011;6244;51.460;7.090;2023-04-08T17:46:36;31.52;;;19.27;;
12359;SDS011;6244;51.460;7.090;2023-04-08T17:51:33;32.00;;;19.92;;
12359;SDS011;6244;51.460;7.090;2023-04-08T17:56:29;32.08;;;19.90;;
12359;SDS011;6244;51.460;7.090;2023-04-08T18:01:28;27.02;;;16.83;;
12359;SDS011;6244;51.460;7.090;2023-04-08T18:06:25;25.58;;;16.95;;
12359;SDS011;6244;51.460;7.090;2023-04-08T18:11:22;26.77;;;16.23;;
12359;SDS011;6244;51.460;7.090;2023-04-08T18:16:21;27.15;;;16.05;;
12359;SDS011;6244;51.460;7.090;2023-04-08T18:21:19;35.45;;;19.95;;
12359;SDS011;6244;51.460;7.090;2023-04-08T18:26:16;33.20;;;20.35;;
12359;SDS011;6244;51.460;7.090;2023-04-08T18:31:12;33.85;;;20.05;;
12359;SDS011;6244;51.460;7.090;2023-04-08T18:36:10;30.67;;;18.52;;
12359;SDS011;6244;51.460;7.090;2023-04-08T18:41:09;28.08;;;16.73;;
12359;SDS011;6244;51.460;7.090;2023-04-08T18:46:07;27.85;;;18.45;;
12359;SDS011;6244;51.460;7.090;2023-04-08T18:51:03;29.55;;;17.80;;
12359;SDS011;6244;51.460;7.090;2023-04-08T18:56:00;27.77;;;17.30;;
12359;SDS011;6244;51.460;7.090;2023-04-08T19:00:58;31.08;;;16.10;;
12359;SDS011;6244;51.460;7.090;2023-04-08T19:05:54;24.58;;;15.90;;
12359;SDS011;6244;51.460;7.090;2023-04-08T19:10:51;28.90;;;15.88;;
12359;SDS011;6244;51.460;7.090;2023-04-08T19:15:47;28.83;;;17.40;;
12359;SDS011;6244;51.460;7.090;2023-04-08T19:20:45;29.35;;;16.65;;
12359;SDS011;6244;51.460;7.090;2023-04-08T19:25:42;29.52;;;17.83;;
12359;SDS011;6244;51.460;7.090;2023-04-08T19:30:39;31.85;;;17.35;;
12359;SDS011;6244;51.460;7.090;2023-04-08T19:35:36;30.13;;;17.05;;
12359;SDS011;6244;51.460;7.090;2023-04-08T19:40:35;28.38;;;16.17;;
12359;SDS011;6244;51.460;7.090;2023-04-08T19:45:32;25.77;;;16.48;;
12359;SDS011;6244;51.460;7.090;2023-04-08T19:50:28;30.63;;;18.00;;
12359;SDS011;6244;51.460;7.090;2023-04-08T19:55:24;26.83;;;16.88;;
12359;SDS011;6244;51.460;7.090;2023-04-08T20:00:23;27.95;;;16.90;;
12359;SDS011;6244;51.460;7.090;2023-04-08T20:05:20;26.85;;;17.38;;
12359;SDS011;6244;51.460;7.090;2023-04-08T20:10:16;30.63;;;18.02;;
12359;SDS011;6244;51.460;7.090;2023-04-08T20:15:14;26.42;;;16.30;;
12359;SDS011;6244;51.460;7.090;2023-04-08T20:20:12;27.48;;;16.15;;
12359;SDS011;6244;51.460;7.090;2023-04-08T20:25:09;23.27;;;14.10;;
12359;SDS011;6244;51.460;7.090;2023-04-08T20:30:06;25.25;;;15.10;;
12359;SDS011;6244;51.460;7.090;2023-04-08T20:35:04;25.23;;;15.80;;
12359;SDS011;6244;51.460;7.090;2023-04-08T20:40:02;26.58;;;15.40;;
12359;SDS011;6244;51.460;7.090;2023-04-08T20:45:00;26.95;;;15.43;;
12359;SDS011;6244;51.460;7.090;2023-04-08T20:49:57;27.38;;;15.43;;
12359;SDS011;6244;51.460;7.090;2023-04-08T20:54:54;23.80;;;14.27;;
12359;SDS011;6244;51.460;7.090;2023-04-08T20:59:52;22.38;;;13.77;;
12359;SDS011;6244;51.460;7.090;2023-04-08T21:04:48;27.70;;;16.58;;
12359;SDS011;6244;51.460;7.090;2023-04-08T21:09:45;26.02;;;15.90;;
12359;SDS011;6244;51.460;7.090;2023-04-08T21:14:42;24.17;;;15.40;;
12359;SDS011;6244;51.460;7.090;2023-04-08T21:19:40;24.92;;;16.00;;
12359;SDS011;6244;51.460;7.090;2023-04-08T21:24:37;26.80;;;16.65;;
12359;SDS011;6244;51.460;7.090;2023-04-08T21:29:33;29.42;;;16.23;;
12359;SDS011;6244;51.460;7.090;2023-04-08T21:34:30;28.08;;;16.27;;
12359;SDS011;6244;51.460;7.090;2023-04-08T21:39:28;26.60;;;17.13;;
12359;SDS011;6244;51.460;7.090;2023-04-08T21:44:24;26.17;;;16.65;;
12359;SDS011;6244;51.460;7.090;2023-04-08T21:49:21;24.15;;;15.65;;
12359;SDS011;6244;51.460;7.090;2023-04-08T21:54:17;28.17;;;17.42;;
12359;SDS011;6244;51.460;7.090;2023-04-08T21:59:15;29.52;;;18.00;;
12359;SDS011;6244;51.460;7.090;2023-04-08T22:04:13;29.30;;;18.15;;
12359;SDS011;6244;51.460;7.090;2023-04-08T22:09:09;31.02;;;18.90;;
12359;SDS011;6244;51.460;7.090;2023-04-08T22:14:06;30.33;;;18.60;;
12359;SDS011;6244;51.460;7.090;2023-04-08T22:19:04;30.42;;;18.42;;
12359;SDS011;6244;51.460;7.090;2023-04-08T22:24:01;29.27;;;18.23;;
12359;SDS011;6244;51.460;7.090;2023-04-08T22:28:57;29.95;;;17.80;;
12359;SDS011;6244;51.460;7.090;2023-04-08T22:33:54;38.95;;;21.58;;
12359;SDS011;6244;51.460;7.090;2023-04-08T22:38:52;35.47;;;22.63;;
12359;SDS011;6244;51.460;7.090;2023-04-08T22:43:48;36.03;;;21.65;;
12359;SDS011;6244;51.460;7.090;2023-04-08T22:48:45;36.85;;;23.48;;
12359;SDS011;6244;51.460;7.090;2023-04-08T22:53:43;35.20;;;21.75;;
12359;SDS011;6244;51.460;7.090;2023-04-08T22:58:40;31.05;;;21.45;;
12359;SDS011;6244;51.460;7.090;2023-04-08T23:03:37;38.08;;;23.50;;
12359;SDS011;6244;51.460;7.090;2023-04-08T23:08:34;36.40;;;23.90;;
12359;SDS011;6244;51.460;7.090;2023-04-08T23:13:31;38.25;;;24.98;;
12359;SDS011;6244;51.460;7.090;2023-04-08T23:18:29;41.63;;;24.48;;
12359;SDS011;6244;51.460;7.090;2023-04-08T23:23:25;29.65;;;19.95;;
12359;SDS011;6244;51.460;7.090;2023-04-08T23:28:22;30.05;;;20.20;;
12359;SDS011;6244;51.460;7.090;2023-04-08T23:33:18;32.08;;;19.52;;
12359;SDS011;6244;51.460;7.090;2023-04-08T23:38:16;30.13;;;19.27;;
12359;SDS011;6244;51.460;7.090;2023-04-08T23:43:13;35.85;;;20.38;;
12359;SDS011;6244;51.460;7.090;2023-04-08T23:48:09;33.28;;;20.13;;
12359;SDS011;6244;51.460;7.090;2023-04-08T23:53:06;33.25;;;19.27;;
12359;SDS011;6244;51.460;7.090;2023-04-08T23:58:04;33.15;;;19.95;;
